Westville, Oklahoma
Current Conditions -  °F | °C
As of 8:55 PM on Friday 19 Dec 2014 (Local Time) from KSLG Reporting Station
Overcast Overcast  
Wind Chill: 39°   Ceiling: 500
Heat Index: 39°   Visibility: 2.5mi
Dew Point: 36°   Wind: 0mph
Humidity: 87%   Direction: NA
Pressure: 30.21"   Gusts: NA
Location:  35.99°N, 94.57°W
Report Text: KSLG 200255Z AUTO 00000KT 2 1/2SM OVC005 04/02 A3021 RMK AO1 52003
Loading
Personal Weather Stations






























Interactive Weather Map New forecast layout! Learn more

10-Day Weather Forecast

Advertisements
Track Severe Weather on mobile